sensor_id;sensor_type;location;lat;lon;timestamp;temperature;humidity
43524;DHT22;29120;52.006;6.020;2023-01-13T00:01:50;10.10;99.90
43524;DHT22;29120;52.006;6.020;2023-01-13T00:04:16;10.00;99.90
43524;DHT22;29120;52.006;6.020;2023-01-13T00:06:41;10.00;99.90
43524;DHT22;29120;52.006;6.020;2023-01-13T00:09:07;10.00;99.90
43524;DHT22;29120;52.006;6.020;2023-01-13T00:11:32;10.00;99.90
43524;DHT22;29120;52.006;6.020;2023-01-13T00:13:58;9.90;99.90
43524;DHT22;29120;52.006;6.020;2023-01-13T00:16:23;9.90;99.90
43524;DHT22;29120;52.006;6.020;2023-01-13T00:18:49;9.90;99.90
43524;DHT22;29120;52.006;6.020;2023-01-13T00:21:21;9.80;99.90
43524;DHT22;29120;52.006;6.020;2023-01-13T00:23:47;9.70;99.90
43524;DHT22;29120;52.006;6.020;2023-01-13T00:26:14;9.60;99.90
43524;DHT22;29120;52.006;6.020;2023-01-13T00:28:40;9.50;99.90
43524;DHT22;29120;52.006;6.020;2023-01-13T00:31:09;9.50;99.90
43524;DHT22;29120;52.006;6.020;2023-01-13T00:33:35;9.40;99.90
43524;DHT22;29120;52.006;6.020;2023-01-13T00:36:02;9.30;99.90
43524;DHT22;29120;52.006;6.020;2023-01-13T00:38:28;9.20;99.90
43524;DHT22;29120;52.006;6.020;2023-01-13T00:40:58;9.10;99.90
43524;DHT22;29120;52.006;6.020;2023-01-13T00:43:24;9.10;99.90
43524;DHT22;29120;52.006;6.020;2023-01-13T00:45:49;9.00;99.90
43524;DHT22;29120;52.006;6.020;2023-01-13T00:48:18;9.00;99.90
43524;DHT22;29120;52.006;6.020;2023-01-13T00:50:44;9.00;99.90
43524;DHT22;29120;52.006;6.020;2023-01-13T00:53:10;8.90;99.90
43524;DHT22;29120;52.006;6.020;2023-01-13T00:55:36;8.90;99.90
43524;DHT22;29120;52.006;6.020;2023-01-13T00:58:03;8.90;99.90
43524;DHT22;29120;52.006;6.020;2023-01-13T01:00:29;8.90;99.90
43524;DHT22;29120;52.006;6.020;2023-01-13T01:02:54;8.90;99.90
43524;DHT22;29120;52.006;6.020;2023-01-13T01:05:20;8.90;99.90
43524;DHT22;29120;52.006;6.020;2023-01-13T01:07:45;8.90;99.90
43524;DHT22;29120;52.006;6.020;2023-01-13T01:10:11;8.80;99.90
43524;DHT22;29120;52.006;6.020;2023-01-13T01:12:36;8.80;99.90
43524;DHT22;29120;52.006;6.020;2023-01-13T01:15:02;8.70;99.90
43524;DHT22;29120;52.006;6.020;2023-01-13T01:17:30;8.70;99.90
43524;DHT22;29120;52.006;6.020;2023-01-13T01:19:55;8.70;99.90
43524;DHT22;29120;52.006;6.020;2023-01-13T01:22:21;8.70;99.90
43524;DHT22;29120;52.006;6.020;2023-01-13T01:24:46;8.60;99.90
43524;DHT22;29120;52.006;6.020;2023-01-13T01:27:12;8.60;99.90
43524;DHT22;29120;52.006;6.020;2023-01-13T01:29:37;8.60;99.90
43524;DHT22;29120;52.006;6.020;2023-01-13T01:32:03;8.60;99.90
43524;DHT22;29120;52.006;6.020;2023-01-13T01:34:28;8.70;99.90
43524;DHT22;29120;52.006;6.020;2023-01-13T01:36:54;8.70;99.90
43524;DHT22;29120;52.006;6.020;2023-01-13T01:39:19;8.80;99.90
43524;DHT22;29120;52.006;6.020;2023-01-13T01:41:44;8.80;99.90
43524;DHT22;29120;52.006;6.020;2023-01-13T01:44:51;8.80;99.90
43524;DHT22;29120;52.006;6.020;2023-01-13T01:47:17;8.80;99.90
43524;DHT22;29120;52.006;6.020;2023-01-13T01:49:44;8.80;99.90
43524;DHT22;29120;52.006;6.020;2023-01-13T01:52:11;8.80;99.90
43524;DHT22;29120;52.006;6.020;2023-01-13T01:57:03;8.70;99.90
43524;DHT22;29120;52.006;6.020;2023-01-13T01:59:29;8.60;99.90
43524;DHT22;29120;52.006;6.020;2023-01-13T02:01:56;8.60;99.90
43524;DHT22;29120;52.006;6.020;2023-01-13T02:04:22;8.50;99.90
43524;DHT22;29120;52.006;6.020;2023-01-13T02:06:49;8.50;99.90
43524;DHT22;29120;52.006;6.020;2023-01-13T02:09:14;8.50;99.90
43524;DHT22;29120;52.006;6.020;2023-01-13T02:11:41;8.50;99.90
43524;DHT22;29120;52.006;6.020;2023-01-13T02:14:26;8.40;99.90
43524;DHT22;29120;52.006;6.020;2023-01-13T02:30:04;8.30;99.90
43524;DHT22;29120;52.006;6.020;2023-01-13T02:35:20;8.30;99.90
43524;DHT22;29120;52.006;6.020;2023-01-13T02:37:46;8.30;99.90
43524;DHT22;29120;52.006;6.020;2023-01-13T02:40:21;8.30;99.90
43524;DHT22;29120;52.006;6.020;2023-01-13T02:42:49;8.20;99.90
43524;DHT22;29120;52.006;6.020;2023-01-13T02:45:36;8.30;99.90
43524;DHT22;29120;52.006;6.020;2023-01-13T02:48:04;8.20;99.90
43524;DHT22;29120;52.006;6.020;2023-01-13T02:50:36;8.20;99.90
43524;DHT22;29120;52.006;6.020;2023-01-13T02:53:11;8.20;99.90
43524;DHT22;29120;52.006;6.020;2023-01-13T02:55:45;8.20;99.90
43524;DHT22;29120;52.006;6.020;2023-01-13T02:58:12;8.20;99.90
43524;DHT22;29120;52.006;6.020;2023-01-13T03:00:39;8.20;99.90
43524;DHT22;29120;52.006;6.020;2023-01-13T03:03:05;8.20;99.90
43524;DHT22;29120;52.006;6.020;2023-01-13T03:05:31;8.20;99.90
43524;DHT22;29120;52.006;6.020;2023-01-13T03:20:55;8.20;99.90
43524;DHT22;29120;52.006;6.020;2023-01-13T03:23:28;8.20;99.90
43524;DHT22;29120;52.006;6.020;2023-01-13T03:26:17;8.30;99.90
43524;DHT22;29120;52.006;6.020;2023-01-13T03:28:51;8.40;99.90
43524;DHT22;29120;52.006;6.020;2023-01-13T03:31:20;8.50;99.90
43524;DHT22;29120;52.006;6.020;2023-01-13T03:33:56;8.50;99.90
43524;DHT22;29120;52.006;6.020;2023-01-13T03:36:24;8.60;99.90
43524;DHT22;29120;52.006;6.020;2023-01-13T03:38:51;8.60;99.90
43524;DHT22;29120;52.006;6.020;2023-01-13T03:41:22;8.60;99.90
43524;DHT22;29120;52.006;6.020;2023-01-13T03:43:56;8.60;99.90
43524;DHT22;29120;52.006;6.020;2023-01-13T03:49:28;8.60;99.90
43524;DHT22;29120;52.006;6.020;2023-01-13T03:51:56;8.60;99.90
43524;DHT22;29120;52.006;6.020;2023-01-13T03:54:24;8.50;99.90
43524;DHT22;29120;52.006;6.020;2023-01-13T03:56:59;8.50;99.90
43524;DHT22;29120;52.006;6.020;2023-01-13T03:59:28;8.60;99.90
43524;DHT22;29120;52.006;6.020;2023-01-13T04:02:00;8.60;99.90
43524;DHT22;29120;52.006;6.020;2023-01-13T04:04:31;8.70;99.90
43524;DHT22;29120;52.006;6.020;2023-01-13T04:07:00;8.70;99.90
43524;DHT22;29120;52.006;6.020;2023-01-13T04:12:19;8.70;99.90
43524;DHT22;29120;52.006;6.020;2023-01-13T04:14:47;8.70;99.90
43524;DHT22;29120;52.006;6.020;2023-01-13T04:17:14;8.60;99.90
43524;DHT22;29120;52.006;6.020;2023-01-13T04:19:40;8.50;99.90
43524;DHT22;29120;52.006;6.020;2023-01-13T04:22:05;8.50;99.90
43524;DHT22;29120;52.006;6.020;2023-01-13T04:24:30;8.40;99.90
43524;DHT22;29120;52.006;6.020;2023-01-13T04:26:56;8.40;99.90
43524;DHT22;29120;52.006;6.020;2023-01-13T04:29:22;8.40;99.90
43524;DHT22;29120;52.006;6.020;2023-01-13T04:31:47;8.40;99.90
43524;DHT22;29120;52.006;6.020;2023-01-13T04:34:13;8.40;99.90
43524;DHT22;29120;52.006;6.020;2023-01-13T04:36:38;8.40;99.90
43524;DHT22;29120;52.006;6.020;2023-01-13T04:39:04;8.30;99.90
43524;DHT22;29120;52.006;6.020;2023-01-13T04:41:29;8.30;99.90
43524;DHT22;29120;52.006;6.020;2023-01-13T04:44:15;8.20;99.90
43524;DHT22;29120;52.006;6.020;2023-01-13T04:46:40;8.20;99.90
43524;DHT22;29120;52.006;6.020;2023-01-13T04:49:06;8.20;99.90
43524;DHT22;29120;52.006;6.020;2023-01-13T04:51:31;8.20;99.90
43524;DHT22;29120;52.006;6.020;2023-01-13T04:53:56;8.20;99.90
43524;DHT22;29120;52.006;6.020;2023-01-13T04:56:22;8.20;99.90
43524;DHT22;29120;52.006;6.020;2023-01-13T04:58:47;8.10;99.90
43524;DHT22;29120;52.006;6.020;2023-01-13T05:01:13;8.10;99.90
43524;DHT22;29120;52.006;6.020;2023-01-13T05:03:38;8.00;99.90
43524;DHT22;29120;52.006;6.020;2023-01-13T05:06:04;8.10;99.90
43524;DHT22;29120;52.006;6.020;2023-01-13T05:08:29;8.00;99.90
43524;DHT22;29120;52.006;6.020;2023-01-13T05:10:58;8.10;99.90
43524;DHT22;29120;52.006;6.020;2023-01-13T05:13:23;8.10;99.90
43524;DHT22;29120;52.006;6.020;2023-01-13T05:16:08;8.00;99.90
43524;DHT22;29120;52.006;6.020;2023-01-13T05:18:52;8.00;99.90
43524;DHT22;29120;52.006;6.020;2023-01-13T05:21:18;8.00;99.90
43524;DHT22;29120;52.006;6.020;2023-01-13T05:24:02;8.00;99.90
43524;DHT22;29120;52.006;6.020;2023-01-13T05:26:46;8.00;99.90
43524;DHT22;29120;52.006;6.020;2023-01-13T05:29:12;8.00;99.90
43524;DHT22;29120;52.006;6.020;2023-01-13T05:31:37;7.90;99.90
43524;DHT22;29120;52.006;6.020;2023-01-13T05:34:02;7.90;99.90
43524;DHT22;29120;52.006;6.020;2023-01-13T05:36:28;8.00;99.90
43524;DHT22;29120;52.006;6.020;2023-01-13T05:38:53;8.10;99.90
43524;DHT22;29120;52.006;6.020;2023-01-13T05:41:19;8.10;99.90
43524;DHT22;29120;52.006;6.020;2023-01-13T05:44:03;8.20;99.90
43524;DHT22;29120;52.006;6.020;2023-01-13T05:46:29;8.20;99.90
43524;DHT22;29120;52.006;6.020;2023-01-13T05:48:54;8.40;99.90
43524;DHT22;29120;52.006;6.020;2023-01-13T05:51:20;8.30;99.90
43524;DHT22;29120;52.006;6.020;2023-01-13T05:53:50;8.30;99.90
43524;DHT22;29120;52.006;6.020;2023-01-13T05:56:15;8.30;99.90
43524;DHT22;29120;52.006;6.020;2023-01-13T05:58:42;8.40;99.90
43524;DHT22;29120;52.006;6.020;2023-01-13T06:01:07;8.40;99.90
43524;DHT22;29120;52.006;6.020;2023-01-13T06:03:33;8.40;99.90
43524;DHT22;29120;52.006;6.020;2023-01-13T06:05:59;8.40;99.90
43524;DHT22;29120;52.006;6.020;2023-01-13T06:08:26;8.30;99.90
43524;DHT22;29120;52.006;6.020;2023-01-13T06:10:51;8.30;99.90
43524;DHT22;29120;52.006;6.020;2023-01-13T06:13:17;8.10;99.90
43524;DHT22;29120;52.006;6.020;2023-01-13T06:15:43;8.10;99.90
43524;DHT22;29120;52.006;6.020;2023-01-13T06:18:08;8.00;99.90
43524;DHT22;29120;52.006;6.020;2023-01-13T06:20:34;8.00;99.90
43524;DHT22;29120;52.006;6.020;2023-01-13T06:22:59;8.00;99.90
43524;DHT22;29120;52.006;6.020;2023-01-13T06:28:09;8.00;99.90
43524;DHT22;29120;52.006;6.020;2023-01-13T06:30:38;7.90;99.90
43524;DHT22;29120;52.006;6.020;2023-01-13T06:33:07;7.90;99.90
43524;DHT22;29120;52.006;6.020;2023-01-13T06:35:34;7.80;99.90
43524;DHT22;29120;52.006;6.020;2023-01-13T06:38:01;7.80;99.90
43524;DHT22;29120;52.006;6.020;2023-01-13T06:40:27;7.80;99.90
43524;DHT22;29120;52.006;6.020;2023-01-13T06:42:53;7.70;99.90
43524;DHT22;29120;52.006;6.020;2023-01-13T06:45:37;7.70;99.90
43524;DHT22;29120;52.006;6.020;2023-01-13T06:48:03;7.70;99.90
43524;DHT22;29120;52.006;6.020;2023-01-13T06:50:29;7.70;99.90
43524;DHT22;29120;52.006;6.020;2023-01-13T06:52:54;7.70;99.90
43524;DHT22;29120;52.006;6.020;2023-01-13T06:55:20;7.70;99.90
43524;DHT22;29120;52.006;6.020;2023-01-13T06:57:46;7.70;99.90
43524;DHT22;29120;52.006;6.020;2023-01-13T07:00:12;7.70;99.90
43524;DHT22;29120;52.006;6.020;2023-01-13T07:02:38;7.80;99.90
43524;DHT22;29120;52.006;6.020;2023-01-13T07:05:03;7.90;99.90
43524;DHT22;29120;52.006;6.020;2023-01-13T07:07:29;8.00;99.90
43524;DHT22;29120;52.006;6.020;2023-01-13T07:09:54;8.10;99.90
43524;DHT22;29120;52.006;6.020;2023-01-13T07:12:20;8.10;99.90
43524;DHT22;29120;52.006;6.020;2023-01-13T07:14:45;8.10;99.90
43524;DHT22;29120;52.006;6.020;2023-01-13T07:17:29;8.10;99.90
43524;DHT22;29120;52.006;6.020;2023-01-13T07:19:54;8.10;99.90
43524;DHT22;29120;52.006;6.020;2023-01-13T07:22:21;8.20;99.90
43524;DHT22;29120;52.006;6.020;2023-01-13T07:24:46;8.10;99.90
43524;DHT22;29120;52.006;6.020;2023-01-13T07:27:12;8.10;99.90
43524;DHT22;29120;52.006;6.020;2023-01-13T07:29:37;8.20;99.90
43524;DHT22;29120;52.006;6.020;2023-01-13T07:32:04;8.20;99.90
43524;DHT22;29120;52.006;6.020;2023-01-13T07:34:31;8.20;99.90
43524;DHT22;29120;52.006;6.020;2023-01-13T07:36:56;8.20;99.90
43524;DHT22;29120;52.006;6.020;2023-01-13T07:39:21;8.30;99.90
43524;DHT22;29120;52.006;6.020;2023-01-13T07:41:47;8.30;99.90
43524;DHT22;29120;52.006;6.020;2023-01-13T07:44:31;8.30;99.90
43524;DHT22;29120;52.006;6.020;2023-01-13T07:46:56;8.30;99.90
43524;DHT22;29120;52.006;6.020;2023-01-13T07:49:22;8.20;99.90
43524;DHT22;29120;52.006;6.020;2023-01-13T07:51:47;8.10;99.90
43524;DHT22;29120;52.006;6.020;2023-01-13T07:54:13;8.10;99.90
43524;DHT22;29120;52.006;6.020;2023-01-13T07:56:38;8.00;99.90
43524;DHT22;29120;52.006;6.020;2023-01-13T07:59:04;8.10;99.90
43524;DHT22;29120;52.006;6.020;2023-01-13T08:01:29;8.10;99.90
43524;DHT22;29120;52.006;6.020;2023-01-13T08:03:56;8.20;99.90
43524;DHT22;29120;52.006;6.020;2023-01-13T08:06:23;8.30;99.90
43524;DHT22;29120;52.006;6.020;2023-01-13T08:08:49;8.30;99.90
43524;DHT22;29120;52.006;6.020;2023-01-13T08:11:14;8.40;99.90
43524;DHT22;29120;52.006;6.020;2023-01-13T08:13:40;8.40;99.90
43524;DHT22;29120;52.006;6.020;2023-01-13T08:16:06;8.40;99.90
43524;DHT22;29120;52.006;6.020;2023-01-13T08:18:33;8.50;99.90
43524;DHT22;29120;52.006;6.020;2023-01-13T08:21:02;8.40;99.90
43524;DHT22;29120;52.006;6.020;2023-01-13T08:23:28;8.50;99.90
43524;DHT22;29120;52.006;6.020;2023-01-13T08:25:54;8.50;99.90
43524;DHT22;29120;52.006;6.020;2023-01-13T08:28:19;8.50;99.90
43524;DHT22;29120;52.006;6.020;2023-01-13T08:30:45;8.50;99.90
43524;DHT22;29120;52.006;6.020;2023-01-13T08:33:11;8.50;99.90
43524;DHT22;29120;52.006;6.020;2023-01-13T08:35:37;8.50;99.90
43524;DHT22;29120;52.006;6.020;2023-01-13T08:38:03;8.60;99.90
43524;DHT22;29120;52.006;6.020;2023-01-13T08:40:29;8.60;99.90
43524;DHT22;29120;52.006;6.020;2023-01-13T08:42:55;8.60;99.90
43524;DHT22;29120;52.006;6.020;2023-01-13T08:45:21;8.60;99.90
43524;DHT22;29120;52.006;6.020;2023-01-13T08:47:46;8.60;99.90
43524;DHT22;29120;52.006;6.020;2023-01-13T08:50:12;8.60;99.90
43524;DHT22;29120;52.006;6.020;2023-01-13T08:52:37;8.60;99.90
43524;DHT22;29120;52.006;6.020;2023-01-13T08:55:03;8.70;99.90
43524;DHT22;29120;52.006;6.020;2023-01-13T08:57:29;8.70;99.90
43524;DHT22;29120;52.006;6.020;2023-01-13T08:59:54;8.70;99.90
43524;DHT22;29120;52.006;6.020;2023-01-13T09:02:21;8.70;99.90
43524;DHT22;29120;52.006;6.020;2023-01-13T09:04:46;8.70;99.90
43524;DHT22;29120;52.006;6.020;2023-01-13T09:07:12;8.70;99.90
43524;DHT22;29120;52.006;6.020;2023-01-13T09:09:38;8.70;99.90
43524;DHT22;29120;52.006;6.020;2023-01-13T09:12:03;8.70;99.90
43524;DHT22;29120;52.006;6.020;2023-01-13T09:14:48;8.70;99.90
43524;DHT22;29120;52.006;6.020;2023-01-13T09:17:13;8.80;99.90
43524;DHT22;29120;52.006;6.020;2023-01-13T09:19:39;8.80;99.90
43524;DHT22;29120;52.006;6.020;2023-01-13T09:22:05;8.80;99.90
43524;DHT22;29120;52.006;6.020;2023-01-13T09:24:30;8.80;99.90
43524;DHT22;29120;52.006;6.020;2023-01-13T09:26:56;8.70;99.90
43524;DHT22;29120;52.006;6.020;2023-01-13T09:29:21;8.70;99.90
43524;DHT22;29120;52.006;6.020;2023-01-13T09:31:47;8.60;99.90
43524;DHT22;29120;52.006;6.020;2023-01-13T09:34:13;8.60;99.90
43524;DHT22;29120;52.006;6.020;2023-01-13T09:36:58;8.60;99.90
43524;DHT22;29120;52.006;6.020;2023-01-13T09:39:23;8.60;99.90
43524;DHT22;29120;52.006;6.020;2023-01-13T09:41:49;8.60;99.90
43524;DHT22;29120;52.006;6.020;2023-01-13T09:49:51;8.70;99.90
43524;DHT22;29120;52.006;6.020;2023-01-13T09:52:20;8.70;99.90
43524;DHT22;29120;52.006;6.020;2023-01-13T09:54:51;8.60;99.90
43524;DHT22;29120;52.006;6.020;2023-01-13T09:57:18;8.60;99.90
43524;DHT22;29120;52.006;6.020;2023-01-13T09:59:44;8.60;99.90
43524;DHT22;29120;52.006;6.020;2023-01-13T10:02:44;8.60;99.90
43524;DHT22;29120;52.006;6.020;2023-01-13T10:07:31;8.60;99.90
43524;DHT22;29120;52.006;6.020;2023-01-13T10:09:58;8.50;99.90
43524;DHT22;29120;52.006;6.020;2023-01-13T10:12:26;8.50;99.90
43524;DHT22;29120;52.006;6.020;2023-01-13T10:15:14;8.40;99.90
43524;DHT22;29120;52.006;6.020;2023-01-13T10:17:43;8.40;99.90
43524;DHT22;29120;52.006;6.020;2023-01-13T10:20:15;8.30;99.90
43524;DHT22;29120;52.006;6.020;2023-01-13T10:25:12;8.30;99.90
43524;DHT22;29120;52.006;6.020;2023-01-13T10:27:45;8.20;99.90
43524;DHT22;29120;52.006;6.020;2023-01-13T10:32:55;8.20;99.90
43524;DHT22;29120;52.006;6.020;2023-01-13T10:38:17;8.20;99.90
43524;DHT22;29120;52.006;6.020;2023-01-13T10:40:47;8.20;99.90
43524;DHT22;29120;52.006;6.020;2023-01-13T10:43:13;8.20;99.90
43524;DHT22;29120;52.006;6.020;2023-01-13T10:45:38;8.20;99.90
43524;DHT22;29120;52.006;6.020;2023-01-13T10:48:05;8.20;99.90
43524;DHT22;29120;52.006;6.020;2023-01-13T10:50:33;8.30;99.90
43524;DHT22;29120;52.006;6.020;2023-01-13T10:53:00;8.30;99.90
43524;DHT22;29120;52.006;6.020;2023-01-13T10:57:51;8.50;99.90
43524;DHT22;29120;52.006;6.020;2023-01-13T11:00:27;8.60;99.90
43524;DHT22;29120;52.006;6.020;2023-01-13T11:05:37;8.90;99.90
43524;DHT22;29120;52.006;6.020;2023-01-13T11:08:02;8.80;99.90
43524;DHT22;29120;52.006;6.020;2023-01-13T11:10:28;8.80;99.90
43524;DHT22;29120;52.006;6.020;2023-01-13T11:13:14;8.80;99.90
43524;DHT22;29120;52.006;6.020;2023-01-13T11:15:43;8.70;99.90
43524;DHT22;29120;52.006;6.020;2023-01-13T11:21:03;8.60;99.90
43524;DHT22;29120;52.006;6.020;2023-01-13T11:23:33;8.50;99.90
43524;DHT22;29120;52.006;6.020;2023-01-13T11:26:03;8.40;99.90
43524;DHT22;29120;52.006;6.020;2023-01-13T11:33:27;8.30;99.90
43524;DHT22;29120;52.006;6.020;2023-01-13T11:41:07;8.50;99.90
43524;DHT22;29120;52.006;6.020;2023-01-13T11:43:35;8.60;99.90
43524;DHT22;29120;52.006;6.020;2023-01-13T11:46:04;8.70;99.90
43524;DHT22;29120;52.006;6.020;2023-01-13T11:48:30;8.80;99.90
43524;DHT22;29120;52.006;6.020;2023-01-13T12:03:49;8.90;99.90
43524;DHT22;29120;52.006;6.020;2023-01-13T12:06:19;8.90;99.90
43524;DHT22;29120;52.006;6.020;2023-01-13T12:08:49;8.80;99.90
43524;DHT22;29120;52.006;6.020;2023-01-13T12:16:19;8.80;99.90
43524;DHT22;29120;52.006;6.020;2023-01-13T12:18:53;8.80;99.90
43524;DHT22;29120;52.006;6.020;2023-01-13T12:21:29;8.90;99.90
43524;DHT22;29120;52.006;6.020;2023-01-13T12:26:24;8.90;99.90
43524;DHT22;29120;52.006;6.020;2023-01-13T12:28:55;8.80;99.90
43524;DHT22;29120;52.006;6.020;2023-01-13T12:31:21;8.80;99.90
43524;DHT22;29120;52.006;6.020;2023-01-13T12:33:50;8.80;99.90
43524;DHT22;29120;52.006;6.020;2023-01-13T12:38:57;8.70;99.90
43524;DHT22;29120;52.006;6.020;2023-01-13T12:43:55;8.70;99.90
43524;DHT22;29120;52.006;6.020;2023-01-13T12:46:43;8.70;99.90
43524;DHT22;29120;52.006;6.020;2023-01-13T12:49:17;8.60;99.90
43524;DHT22;29120;52.006;6.020;2023-01-13T12:56:58;8.40;99.90
43524;DHT22;29120;52.006;6.020;2023-01-13T13:01:50;8.40;99.90
43524;DHT22;29120;52.006;6.020;2023-01-13T13:04:19;8.40;99.90
43524;DHT22;29120;52.006;6.020;2023-01-13T13:06:50;8.40;99.90
43524;DHT22;29120;52.006;6.020;2023-01-13T13:11:45;8.50;99.90
43524;DHT22;29120;52.006;6.020;2023-01-13T13:17:01;8.70;99.90
43524;DHT22;29120;52.006;6.020;2023-01-13T13:24:39;8.70;99.90
43524;DHT22;29120;52.006;6.020;2023-01-13T13:27:18;8.70;99.90
43524;DHT22;29120;52.006;6.020;2023-01-13T13:40:19;8.80;99.90
43524;DHT22;29120;52.006;6.020;2023-01-13T13:43:04;8.80;99.90
43524;DHT22;29120;52.006;6.020;2023-01-13T13:45:53;8.80;99.90
43524;DHT22;29120;52.006;6.020;2023-01-13T13:48:37;8.80;99.90
43524;DHT22;29120;52.006;6.020;2023-01-13T13:51:15;8.90;99.90
43524;DHT22;29120;52.006;6.020;2023-01-13T13:53:45;8.90;99.90
43524;DHT22;29120;52.006;6.020;2023-01-13T13:56:15;8.90;99.90
43524;DHT22;29120;52.006;6.020;2023-01-13T13:58:41;8.90;99.90
43524;DHT22;29120;52.006;6.020;2023-01-13T14:01:06;8.90;99.90
43524;DHT22;29120;52.006;6.020;2023-01-13T14:03:35;8.90;99.90
43524;DHT22;29120;52.006;6.020;2023-01-13T14:06:04;8.90;99.90
43524;DHT22;29120;52.006;6.020;2023-01-13T14:08:32;8.90;99.90
43524;DHT22;29120;52.006;6.020;2023-01-13T14:10:58;9.00;99.90
43524;DHT22;29120;52.006;6.020;2023-01-13T14:13:24;9.00;99.90
43524;DHT22;29120;52.006;6.020;2023-01-13T14:15:57;9.00;99.90
43524;DHT22;29120;52.006;6.020;2023-01-13T14:18:23;9.00;99.90
43524;DHT22;29120;52.006;6.020;2023-01-13T14:21:15;9.00;99.90
43524;DHT22;29120;52.006;6.020;2023-01-13T14:23:48;9.10;99.90
43524;DHT22;29120;52.006;6.020;2023-01-13T14:26:14;9.10;99.90
43524;DHT22;29120;52.006;6.020;2023-01-13T14:28:40;9.10;99.90
43524;DHT22;29120;52.006;6.020;2023-01-13T14:31:07;9.10;99.90
43524;DHT22;29120;52.006;6.020;2023-01-13T14:33:46;9.10;99.90
43524;DHT22;29120;52.006;6.020;2023-01-13T14:38:39;9.10;99.90
43524;DHT22;29120;52.006;6.020;2023-01-13T14:41:21;9.10;99.90
43524;DHT22;29120;52.006;6.020;2023-01-13T14:43:48;9.10;99.90
43524;DHT22;29120;52.006;6.020;2023-01-13T14:46:14;9.00;99.90
43524;DHT22;29120;52.006;6.020;2023-01-13T14:48:41;9.00;99.90
43524;DHT22;29120;52.006;6.020;2023-01-13T14:51:11;9.10;99.90
43524;DHT22;29120;52.006;6.020;2023-01-13T14:58:47;9.00;99.90
43524;DHT22;29120;52.006;6.020;2023-01-13T15:01:27;9.00;99.90
43524;DHT22;29120;52.006;6.020;2023-01-13T15:03:53;9.00;99.90
43524;DHT22;29120;52.006;6.020;2023-01-13T15:06:22;9.00;99.90
43524;DHT22;29120;52.006;6.020;2023-01-13T15:08:48;9.00;99.90
43524;DHT22;29120;52.006;6.020;2023-01-13T15:11:17;9.00;99.90
43524;DHT22;29120;52.006;6.020;2023-01-13T15:13:46;9.00;99.90
43524;DHT22;29120;52.006;6.020;2023-01-13T15:16:21;9.00;99.90
43524;DHT22;29120;52.006;6.020;2023-01-13T15:18:49;9.10;99.90
43524;DHT22;29120;52.006;6.020;2023-01-13T15:21:14;9.00;99.90
43524;DHT22;29120;52.006;6.020;2023-01-13T15:23:40;9.00;99.90
43524;DHT22;29120;52.006;6.020;2023-01-13T15:26:17;9.00;99.90
43524;DHT22;29120;52.006;6.020;2023-01-13T15:28:43;9.00;99.90
43524;DHT22;29120;52.006;6.020;2023-01-13T15:31:08;9.00;99.90
43524;DHT22;29120;52.006;6.020;2023-01-13T15:33:34;9.10;99.90
43524;DHT22;29120;52.006;6.020;2023-01-13T15:35:59;9.10;99.90
43524;DHT22;29120;52.006;6.020;2023-01-13T15:38:26;9.10;99.90
43524;DHT22;29120;52.006;6.020;2023-01-13T15:40:51;9.00;99.90
43524;DHT22;29120;52.006;6.020;2023-01-13T15:43:20;9.00;99.90
43524;DHT22;29120;52.006;6.020;2023-01-13T15:46:13;9.00;99.90
43524;DHT22;29120;52.006;6.020;2023-01-13T15:49:01;9.00;99.90
43524;DHT22;29120;52.006;6.020;2023-01-13T15:51:27;9.00;99.90
43524;DHT22;29120;52.006;6.020;2023-01-13T15:53:53;9.00;99.90
43524;DHT22;29120;52.006;6.020;2023-01-13T15:56:24;8.90;99.90
43524;DHT22;29120;52.006;6.020;2023-01-13T15:58:53;8.90;99.90
43524;DHT22;29120;52.006;6.020;2023-01-13T16:01:18;8.90;99.90
43524;DHT22;29120;52.006;6.020;2023-01-13T16:03:44;8.90;99.90
43524;DHT22;29120;52.006;6.020;2023-01-13T16:06:11;8.90;99.90
43524;DHT22;29120;52.006;6.020;2023-01-13T16:08:38;8.80;99.90
43524;DHT22;29120;52.006;6.020;2023-01-13T16:11:04;8.80;99.90
43524;DHT22;29120;52.006;6.020;2023-01-13T16:13:29;8.80;99.90
43524;DHT22;29120;52.006;6.020;2023-01-13T16:15:55;8.80;99.90
43524;DHT22;29120;52.006;6.020;2023-01-13T16:18:21;8.80;99.90
43524;DHT22;29120;52.006;6.020;2023-01-13T16:20:50;8.80;99.90
43524;DHT22;29120;52.006;6.020;2023-01-13T16:23:20;8.80;99.90
43524;DHT22;29120;52.006;6.020;2023-01-13T16:25:45;8.80;99.90
43524;DHT22;29120;52.006;6.020;2023-01-13T16:28:21;8.80;99.90
43524;DHT22;29120;52.006;6.020;2023-01-13T16:30:48;8.70;99.90
43524;DHT22;29120;52.006;6.020;2023-01-13T16:33:13;8.70;99.90
43524;DHT22;29120;52.006;6.020;2023-01-13T16:35:39;8.70;99.90
43524;DHT22;29120;52.006;6.020;2023-01-13T16:38:04;8.70;99.90
43524;DHT22;29120;52.006;6.020;2023-01-13T16:40:31;8.70;99.90
43524;DHT22;29120;52.006;6.020;2023-01-13T16:42:58;8.70;99.90
43524;DHT22;29120;52.006;6.020;2023-01-13T16:45:25;8.80;99.90
43524;DHT22;29120;52.006;6.020;2023-01-13T16:47:51;8.70;99.90
43524;DHT22;29120;52.006;6.020;2023-01-13T16:50:19;8.70;99.90
43524;DHT22;29120;52.006;6.020;2023-01-13T16:52:44;8.70;99.90
43524;DHT22;29120;52.006;6.020;2023-01-13T16:55:10;8.70;99.90
43524;DHT22;29120;52.006;6.020;2023-01-13T16:57:35;8.60;99.90
43524;DHT22;29120;52.006;6.020;2023-01-13T17:00:01;8.60;99.90
43524;DHT22;29120;52.006;6.020;2023-01-13T17:02:26;8.60;99.90
43524;DHT22;29120;52.006;6.020;2023-01-13T17:04:52;8.50;99.90
43524;DHT22;29120;52.006;6.020;2023-01-13T17:07:17;8.50;99.90
43524;DHT22;29120;52.006;6.020;2023-01-13T17:09:43;8.60;99.90
43524;DHT22;29120;52.006;6.020;2023-01-13T17:12:09;8.60;99.90
43524;DHT22;29120;52.006;6.020;2023-01-13T17:14:34;8.50;99.90
43524;DHT22;29120;52.006;6.020;2023-01-13T17:17:00;8.60;99.90
43524;DHT22;29120;52.006;6.020;2023-01-13T17:19:25;8.60;99.90
43524;DHT22;29120;52.006;6.020;2023-01-13T17:21:51;8.70;99.90
43524;DHT22;29120;52.006;6.020;2023-01-13T17:24:16;8.70;99.90
43524;DHT22;29120;52.006;6.020;2023-01-13T17:26:42;8.70;99.90
43524;DHT22;29120;52.006;6.020;2023-01-13T17:29:12;8.80;99.90
43524;DHT22;29120;52.006;6.020;2023-01-13T17:31:37;8.70;99.90
43524;DHT22;29120;52.006;6.020;2023-01-13T17:34:03;8.70;99.90
43524;DHT22;29120;52.006;6.020;2023-01-13T17:36:29;8.70;99.90
43524;DHT22;29120;52.006;6.020;2023-01-13T17:38:55;8.80;99.90
43524;DHT22;29120;52.006;6.020;2023-01-13T17:41:21;8.80;99.90
43524;DHT22;29120;52.006;6.020;2023-01-13T17:43:46;8.70;99.90
43524;DHT22;29120;52.006;6.020;2023-01-13T17:46:12;8.70;99.90
43524;DHT22;29120;52.006;6.020;2023-01-13T17:48:38;8.60;99.90
43524;DHT22;29120;52.006;6.020;2023-01-13T17:51:07;8.60;99.90
43524;DHT22;29120;52.006;6.020;2023-01-13T17:53:32;8.50;99.90
43524;DHT22;29120;52.006;6.020;2023-01-13T17:55:58;8.40;99.90
43524;DHT22;29120;52.006;6.020;2023-01-13T17:58:23;8.30;99.90
43524;DHT22;29120;52.006;6.020;2023-01-13T18:00:49;8.20;99.90
43524;DHT22;29120;52.006;6.020;2023-01-13T18:03:15;8.10;99.90
43524;DHT22;29120;52.006;6.020;2023-01-13T18:05:41;8.00;99.90
43524;DHT22;29120;52.006;6.020;2023-01-13T18:08:07;7.90;99.90